sensor_id;sensor_type;location;lat;lon;timestamp;pressure;altitude;pressure_sealevel;temperature;humidity
81990;BME280;71485;51.638;-0.182;2024-01-06T00:00:28;99939.61;;;18.12;36.41
81990;BME280;71485;51.638;-0.182;2024-01-06T00:02:54;99940.57;;;18.17;36.30
81990;BME280;71485;51.638;-0.182;2024-01-06T00:05:21;99941.97;;;18.36;36.37
81990;BME280;71485;51.638;-0.182;2024-01-06T00:07:49;99945.21;;;18.09;36.42
81990;BME280;71485;51.638;-0.182;2024-01-06T00:10:11;99948.72;;;18.37;36.35
81990;BME280;71485;51.638;-0.182;2024-01-06T00:12:37;99950.66;;;18.36;36.40
81990;BME280;71485;51.638;-0.182;2024-01-06T00:15:03;99952.71;;;18.06;36.47
81990;BME280;71485;51.638;-0.182;2024-01-06T00:17:27;99951.46;;;18.24;36.56
81990;BME280;71485;51.638;-0.182;2024-01-06T00:19:53;99952.90;;;18.22;36.56
81990;BME280;71485;51.638;-0.182;2024-01-06T00:22:19;99956.03;;;18.22;36.54
81990;BME280;71485;51.638;-0.182;2024-01-06T00:24:46;99958.17;;;18.22;36.55
81990;BME280;71485;51.638;-0.182;2024-01-06T00:27:13;99960.63;;;18.00;36.48
81990;BME280;71485;51.638;-0.182;2024-01-06T00:29:36;99961.37;;;18.25;36.46
81990;BME280;71485;51.638;-0.182;2024-01-06T00:32:02;99961.80;;;18.20;36.54
81990;BME280;71485;51.638;-0.182;2024-01-06T00:34:27;99961.46;;;18.20;36.54
81990;BME280;71485;51.638;-0.182;2024-01-06T00:36:53;99963.07;;;18.24;36.49
81990;BME280;71485;51.638;-0.182;2024-01-06T00:39:20;99963.67;;;18.20;36.54
81990;BME280;71485;51.638;-0.182;2024-01-06T00:41:44;99964.37;;;17.75;36.48
81990;BME280;71485;51.638;-0.182;2024-01-06T00:44:10;99967.80;;;18.18;36.53
81990;BME280;71485;51.638;-0.182;2024-01-06T00:46:37;99965.82;;;18.25;36.43
81990;BME280;71485;51.638;-0.182;2024-01-06T00:49:03;99967.02;;;17.98;36.47
81990;BME280;71485;51.638;-0.182;2024-01-06T00:51:27;99966.57;;;18.23;36.44
81990;BME280;71485;51.638;-0.182;2024-01-06T00:53:54;99966.46;;;18.24;36.41
81990;BME280;71485;51.638;-0.182;2024-01-06T00:56:18;99968.17;;;18.20;36.45
81990;BME280;71485;51.638;-0.182;2024-01-06T00:58:44;99970.44;;;17.75;36.40
81990;BME280;71485;51.638;-0.182;2024-01-06T01:01:09;99970.26;;;18.21;36.42
81990;BME280;71485;51.638;-0.182;2024-01-06T01:03:35;99972.21;;;18.21;36.42
81990;BME280;71485;51.638;-0.182;2024-01-06T01:06:01;99968.92;;;18.22;36.36
81990;BME280;71485;51.638;-0.182;2024-01-06T01:08:26;99972.50;;;17.97;36.36
81990;BME280;71485;51.638;-0.182;2024-01-06T01:10:52;99973.35;;;18.19;36.40
81990;BME280;71485;51.638;-0.182;2024-01-06T01:13:20;99973.33;;;17.98;36.34
81990;BME280;71485;51.638;-0.182;2024-01-06T01:15:43;99971.21;;;17.73;36.34
81990;BME280;71485;51.638;-0.182;2024-01-06T01:18:09;99972.92;;;17.95;36.36
81990;BME280;71485;51.638;-0.182;2024-01-06T01:20:35;99973.12;;;18.15;36.42
81990;BME280;71485;51.638;-0.182;2024-01-06T01:23:00;99979.28;;;18.19;36.36
81990;BME280;71485;51.638;-0.182;2024-01-06T01:25:29;99980.45;;;18.15;36.44
81990;BME280;71485;51.638;-0.182;2024-01-06T01:27:54;99984.89;;;18.14;36.45
81990;BME280;71485;51.638;-0.182;2024-01-06T01:30:17;99986.34;;;17.87;36.50
81990;BME280;71485;51.638;-0.182;2024-01-06T01:32:45;99987.49;;;18.14;36.44
81990;BME280;71485;51.638;-0.182;2024-01-06T01:35:08;99989.94;;;18.15;36.42
81990;BME280;71485;51.638;-0.182;2024-01-06T01:37:34;99990.50;;;17.92;36.40
81990;BME280;71485;51.638;-0.182;2024-01-06T01:40:00;99996.00;;;18.14;36.35
81990;BME280;71485;51.638;-0.182;2024-01-06T01:42:28;99997.83;;;18.14;36.41
81990;BME280;71485;51.638;-0.182;2024-01-06T01:44:52;100002.77;;;18.13;36.41
81990;BME280;71485;51.638;-0.182;2024-01-06T01:47:18;100004.73;;;17.65;36.39
81990;BME280;71485;51.638;-0.182;2024-01-06T01:49:42;100008.03;;;17.63;36.42
81990;BME280;71485;51.638;-0.182;2024-01-06T01:52:10;100012.08;;;18.13;36.37
81990;BME280;71485;51.638;-0.182;2024-01-06T01:54:34;100011.48;;;18.09;36.41
81990;BME280;71485;51.638;-0.182;2024-01-06T01:56:59;100015.23;;;18.08;36.41
81990;BME280;71485;51.638;-0.182;2024-01-06T01:59:25;100019.77;;;18.08;36.38
81990;BME280;71485;51.638;-0.182;2024-01-06T02:01:51;100023.67;;;17.84;36.36
81990;BME280;71485;51.638;-0.182;2024-01-06T02:04:19;100028.26;;;18.07;36.39
81990;BME280;71485;51.638;-0.182;2024-01-06T02:06:42;100033.60;;;17.58;36.39
81990;BME280;71485;51.638;-0.182;2024-01-06T02:09:08;100038.87;;;18.05;36.39
81990;BME280;71485;51.638;-0.182;2024-01-06T02:11:33;100040.39;;;18.04;36.44
81990;BME280;71485;51.638;-0.182;2024-01-06T02:13:59;100045.55;;;18.05;36.41
81990;BME280;71485;51.638;-0.182;2024-01-06T02:16:25;100049.76;;;18.04;36.43
81990;BME280;71485;51.638;-0.182;2024-01-06T02:18:50;100049.67;;;17.81;36.40
81990;BME280;71485;51.638;-0.182;2024-01-06T02:21:17;100049.54;;;18.02;36.46
81990;BME280;71485;51.638;-0.182;2024-01-06T02:23:41;100051.41;;;17.55;36.42
81990;BME280;71485;51.638;-0.182;2024-01-06T02:26:12;100051.57;;;18.04;36.43
81990;BME280;71485;51.638;-0.182;2024-01-06T02:28:33;100054.34;;;18.04;36.44
81990;BME280;71485;51.638;-0.182;2024-01-06T02:30:58;100058.65;;;18.01;36.47
81990;BME280;71485;51.638;-0.182;2024-01-06T02:33:24;100063.11;;;18.03;36.45
81990;BME280;71485;51.638;-0.182;2024-01-06T02:35:50;100059.51;;;18.00;36.47
81990;BME280;71485;51.638;-0.182;2024-01-06T02:38:17;100065.33;;;17.54;36.45
81990;BME280;71485;51.638;-0.182;2024-01-06T02:40:41;100066.71;;;17.24;36.53
81990;BME280;71485;51.638;-0.182;2024-01-06T02:43:07;100069.57;;;17.98;36.49
81990;BME280;71485;51.638;-0.182;2024-01-06T02:45:39;100073.02;;;17.97;36.50
81990;BME280;71485;51.638;-0.182;2024-01-06T02:48:01;100078.50;;;17.98;36.47
81990;BME280;71485;51.638;-0.182;2024-01-06T02:50:24;100077.41;;;17.97;36.47
81990;BME280;71485;51.638;-0.182;2024-01-06T02:52:53;100080.57;;;17.95;36.48
81990;BME280;71485;51.638;-0.182;2024-01-06T02:55:15;100085.41;;;17.94;36.49
81990;BME280;71485;51.638;-0.182;2024-01-06T02:57:40;100085.97;;;17.50;36.44
81990;BME280;71485;51.638;-0.182;2024-01-06T03:00:07;100086.34;;;17.96;36.45
81990;BME280;71485;51.638;-0.182;2024-01-06T03:02:32;100087.93;;;17.97;36.44
81990;BME280;71485;51.638;-0.182;2024-01-06T03:05:00;100090.49;;;17.95;36.44
81990;BME280;71485;51.638;-0.182;2024-01-06T03:07:23;100096.33;;;17.95;36.45
81990;BME280;71485;51.638;-0.182;2024-01-06T03:09:49;100095.43;;;17.68;36.47
81990;BME280;71485;51.638;-0.182;2024-01-06T03:12:14;100098.51;;;17.96;36.40
81990;BME280;71485;51.638;-0.182;2024-01-06T03:14:43;100103.60;;;17.48;36.40
81990;BME280;71485;51.638;-0.182;2024-01-06T03:17:06;100106.04;;;17.93;36.41
81990;BME280;71485;51.638;-0.182;2024-01-06T03:19:33;100109.43;;;17.92;36.46
81990;BME280;71485;51.638;-0.182;2024-01-06T03:21:57;100110.61;;;17.90;36.47
81990;BME280;71485;51.638;-0.182;2024-01-06T03:24:26;100113.51;;;17.67;36.46
81990;BME280;71485;51.638;-0.182;2024-01-06T03:26:49;100116.65;;;17.91;36.44
81990;BME280;71485;51.638;-0.182;2024-01-06T03:29:14;100116.33;;;17.91;36.44
81990;BME280;71485;51.638;-0.182;2024-01-06T03:31:42;100116.54;;;17.63;36.46
81990;BME280;71485;51.638;-0.182;2024-01-06T03:34:05;100115.99;;;17.84;36.48
81990;BME280;71485;51.638;-0.182;2024-01-06T03:36:31;100118.42;;;17.82;36.47
81990;BME280;71485;51.638;-0.182;2024-01-06T03:38:59;100115.71;;;17.58;36.49
81990;BME280;71485;51.638;-0.182;2024-01-06T03:41:22;100116.68;;;17.83;36.48
81990;BME280;71485;51.638;-0.182;2024-01-06T03:43:48;100113.68;;;17.81;36.49
81990;BME280;71485;51.638;-0.182;2024-01-06T03:46:15;100111.23;;;17.57;36.52
81990;BME280;71485;51.638;-0.182;2024-01-06T03:48:40;100116.02;;;17.37;36.52
81990;BME280;71485;51.638;-0.182;2024-01-06T03:51:07;100120.74;;;17.83;36.54
81990;BME280;71485;51.638;-0.182;2024-01-06T03:53:32;100124.12;;;17.79;36.57
81990;BME280;71485;51.638;-0.182;2024-01-06T03:55:56;100129.31;;;17.53;36.59
81990;BME280;71485;51.638;-0.182;2024-01-06T03:58:22;100127.93;;;17.77;36.59
81990;BME280;71485;51.638;-0.182;2024-01-06T04:00:48;100131.09;;;17.53;36.57
81990;BME280;71485;51.638;-0.182;2024-01-06T04:03:14;100138.01;;;17.75;36.57
81990;BME280;71485;51.638;-0.182;2024-01-06T04:05:39;100137.91;;;17.30;36.53
81990;BME280;71485;51.638;-0.182;2024-01-06T04:08:05;100140.31;;;17.72;36.58
81990;BME280;71485;51.638;-0.182;2024-01-06T04:10:30;100144.97;;;17.74;36.57
81990;BME280;71485;51.638;-0.182;2024-01-06T04:12:56;100149.31;;;17.74;36.55
81990;BME280;71485;51.638;-0.182;2024-01-06T04:15:22;100152.57;;;17.71;36.57
81990;BME280;71485;51.638;-0.182;2024-01-06T04:17:48;100157.36;;;17.44;36.62
81990;BME280;71485;51.638;-0.182;2024-01-06T04:20:13;100157.90;;;17.68;36.60
81990;BME280;71485;51.638;-0.182;2024-01-06T04:22:39;100159.91;;;17.42;36.64
81990;BME280;71485;51.638;-0.182;2024-01-06T04:25:06;100161.68;;;17.69;36.59
81990;BME280;71485;51.638;-0.182;2024-01-06T04:27:31;100159.78;;;17.68;36.64
81990;BME280;71485;51.638;-0.182;2024-01-06T04:29:58;100162.83;;;17.93;37.68
81990;BME280;71485;51.638;-0.182;2024-01-06T04:32:21;100163.33;;;18.35;37.34
81990;BME280;71485;51.638;-0.182;2024-01-06T04:34:48;100164.91;;;18.05;37.63
81990;BME280;71485;51.638;-0.182;2024-01-06T04:37:13;100164.71;;;18.24;36.81
81990;BME280;71485;51.638;-0.182;2024-01-06T04:39:42;100167.58;;;18.42;36.55
81990;BME280;71485;51.638;-0.182;2024-01-06T04:42:04;100167.32;;;18.59;36.11
81990;BME280;71485;51.638;-0.182;2024-01-06T04:44:30;100168.87;;;18.72;35.92
81990;BME280;71485;51.638;-0.182;2024-01-06T04:46:57;100170.70;;;18.81;35.65
81990;BME280;71485;51.638;-0.182;2024-01-06T04:49:21;100169.49;;;18.86;35.58
81990;BME280;71485;51.638;-0.182;2024-01-06T04:51:47;100174.02;;;18.84;35.39
81990;BME280;71485;51.638;-0.182;2024-01-06T04:54:17;100177.52;;;18.82;35.35
81990;BME280;71485;51.638;-0.182;2024-01-06T04:56:40;100181.73;;;18.86;35.20
81990;BME280;71485;51.638;-0.182;2024-01-06T04:59:03;100182.61;;;18.96;35.14
81990;BME280;71485;51.638;-0.182;2024-01-06T05:01:29;100183.37;;;18.99;35.00
81990;BME280;71485;51.638;-0.182;2024-01-06T05:03:54;100187.35;;;19.05;35.05
81990;BME280;71485;51.638;-0.182;2024-01-06T05:06:20;100190.73;;;18.73;34.90
81990;BME280;71485;51.638;-0.182;2024-01-06T05:08:46;100196.72;;;18.36;35.25
81990;BME280;71485;51.638;-0.182;2024-01-06T05:11:11;100196.40;;;18.03;35.51
81990;BME280;71485;51.638;-0.182;2024-01-06T05:13:38;100193.41;;;18.28;35.69
81990;BME280;71485;51.638;-0.182;2024-01-06T05:16:03;100196.69;;;17.94;35.75
81990;BME280;71485;51.638;-0.182;2024-01-06T05:18:28;100203.60;;;17.86;35.78
81990;BME280;71485;51.638;-0.182;2024-01-06T05:21:02;100200.01;;;18.14;35.85
81990;BME280;71485;51.638;-0.182;2024-01-06T05:23:20;100206.38;;;18.41;35.49
81990;BME280;71485;51.638;-0.182;2024-01-06T05:25:46;100207.71;;;18.18;35.61
81990;BME280;71485;51.638;-0.182;2024-01-06T05:28:16;100203.00;;;18.56;35.47
81990;BME280;71485;51.638;-0.182;2024-01-06T05:30:37;100207.75;;;18.59;35.44
81990;BME280;71485;51.638;-0.182;2024-01-06T05:33:02;100219.33;;;18.40;35.42
81990;BME280;71485;51.638;-0.182;2024-01-06T05:35:28;100225.58;;;18.64;35.44
81990;BME280;71485;51.638;-0.182;2024-01-06T05:38:01;100228.29;;;18.41;35.47
81990;BME280;71485;51.638;-0.182;2024-01-06T05:40:19;100237.14;;;18.41;35.48
81990;BME280;71485;51.638;-0.182;2024-01-06T05:42:44;100241.81;;;18.18;35.48
81990;BME280;71485;51.638;-0.182;2024-01-06T05:45:11;100247.70;;;18.62;35.59
81990;BME280;71485;51.638;-0.182;2024-01-06T05:47:38;100243.18;;;18.59;35.64
81990;BME280;71485;51.638;-0.182;2024-01-06T05:50:01;100245.16;;;18.39;35.61
81990;BME280;71485;51.638;-0.182;2024-01-06T05:52:28;100247.32;;;18.46;35.53
81990;BME280;71485;51.638;-0.182;2024-01-06T05:54:55;100254.79;;;18.30;35.47
81990;BME280;71485;51.638;-0.182;2024-01-06T05:57:18;100259.59;;;18.79;35.45
81990;BME280;71485;51.638;-0.182;2024-01-06T05:59:45;100264.10;;;18.32;35.43
81990;BME280;71485;51.638;-0.182;2024-01-06T06:02:12;100264.15;;;18.38;35.37
81990;BME280;71485;51.638;-0.182;2024-01-06T06:04:36;100268.11;;;18.45;35.27
81990;BME280;71485;51.638;-0.182;2024-01-06T06:07:03;100272.34;;;18.72;35.25
81990;BME280;71485;51.638;-0.182;2024-01-06T06:09:27;100270.75;;;18.54;35.19
81990;BME280;71485;51.638;-0.182;2024-01-06T06:11:52;100272.46;;;18.61;35.08
81990;BME280;71485;51.638;-0.182;2024-01-06T06:14:18;100277.61;;;18.86;35.06
81990;BME280;71485;51.638;-0.182;2024-01-06T06:16:44;100284.51;;;18.58;35.11
81990;BME280;71485;51.638;-0.182;2024-01-06T06:19:09;100287.91;;;18.23;35.20
81990;BME280;71485;51.638;-0.182;2024-01-06T06:21:35;100293.18;;;18.40;35.18
81990;BME280;71485;51.638;-0.182;2024-01-06T06:24:00;100295.84;;;18.29;35.26
81990;BME280;71485;51.638;-0.182;2024-01-06T06:26:30;100296.06;;;18.44;35.32
81990;BME280;71485;51.638;-0.182;2024-01-06T06:28:52;100296.23;;;18.07;35.44
81990;BME280;71485;51.638;-0.182;2024-01-06T06:31:19;100300.23;;;18.41;35.59
81990;BME280;71485;51.638;-0.182;2024-01-06T06:33:43;100303.51;;;17.91;35.60
81990;BME280;71485;51.638;-0.182;2024-01-06T06:36:09;100305.35;;;18.12;35.59
81990;BME280;71485;51.638;-0.182;2024-01-06T06:38:35;100308.78;;;17.97;35.73
81990;BME280;71485;51.638;-0.182;2024-01-06T06:41:00;100313.34;;;18.14;35.80
81990;BME280;71485;51.638;-0.182;2024-01-06T06:43:27;100315.74;;;18.06;35.89
81990;BME280;71485;51.638;-0.182;2024-01-06T06:45:53;100321.28;;;17.82;35.86
81990;BME280;71485;51.638;-0.182;2024-01-06T06:48:18;100322.41;;;18.07;35.79
81990;BME280;71485;51.638;-0.182;2024-01-06T06:50:43;100327.62;;;17.56;35.82
81990;BME280;71485;51.638;-0.182;2024-01-06T06:53:09;100330.64;;;18.01;35.83
81990;BME280;71485;51.638;-0.182;2024-01-06T06:55:39;100336.16;;;17.97;35.85
81990;BME280;71485;51.638;-0.182;2024-01-06T06:58:00;100341.66;;;17.84;36.01
81990;BME280;71485;51.638;-0.182;2024-01-06T07:00:25;100348.22;;;17.78;36.07
81990;BME280;71485;51.638;-0.182;2024-01-06T07:02:54;100350.24;;;17.50;36.11
81990;BME280;71485;51.638;-0.182;2024-01-06T07:05:17;100353.79;;;17.72;36.12
81990;BME280;71485;51.638;-0.182;2024-01-06T07:07:42;100362.02;;;17.44;36.14
81990;BME280;71485;51.638;-0.182;2024-01-06T07:10:08;100366.71;;;17.75;36.04
81990;BME280;71485;51.638;-0.182;2024-01-06T07:12:34;100368.43;;;17.69;36.11
81990;BME280;71485;51.638;-0.182;2024-01-06T07:14:59;100374.67;;;17.68;36.12
81990;BME280;71485;51.638;-0.182;2024-01-06T07:17:25;100377.72;;;17.62;36.17
81990;BME280;71485;51.638;-0.182;2024-01-06T07:19:51;100381.47;;;17.63;36.16
81990;BME280;71485;51.638;-0.182;2024-01-06T07:22:16;100386.72;;;17.66;36.08
81990;BME280;71485;51.638;-0.182;2024-01-06T07:24:44;100389.39;;;17.63;36.10
81990;BME280;71485;51.638;-0.182;2024-01-06T07:27:09;100391.72;;;17.63;36.09
81990;BME280;71485;51.638;-0.182;2024-01-06T07:29:34;100397.21;;;17.67;36.00
81990;BME280;71485;51.638;-0.182;2024-01-06T07:32:00;100397.55;;;17.60;36.08
81990;BME280;71485;51.638;-0.182;2024-01-06T07:34:25;100401.54;;;17.56;36.11
81990;BME280;71485;51.638;-0.182;2024-01-06T07:36:51;100411.09;;;17.35;36.05
81990;BME280;71485;51.638;-0.182;2024-01-06T07:39:16;100414.01;;;17.59;36.02
81990;BME280;71485;51.638;-0.182;2024-01-06T07:41:42;100415.55;;;17.33;36.02
81990;BME280;71485;51.638;-0.182;2024-01-06T07:44:07;100412.06;;;17.57;36.00
81990;BME280;71485;51.638;-0.182;2024-01-06T07:46:34;100415.74;;;17.56;36.01
81990;BME280;71485;51.638;-0.182;2024-01-06T07:49:00;100423.06;;;17.49;36.08
81990;BME280;71485;51.638;-0.182;2024-01-06T07:51:24;100423.16;;;17.75;36.05
81990;BME280;71485;51.638;-0.182;2024-01-06T07:53:51;100425.49;;;17.46;36.09
81990;BME280;71485;51.638;-0.182;2024-01-06T07:56:15;100427.49;;;17.51;36.03
81990;BME280;71485;51.638;-0.182;2024-01-06T07:58:41;100431.44;;;17.43;36.14
81990;BME280;71485;51.638;-0.182;2024-01-06T08:01:08;100434.56;;;17.61;36.20
81990;BME280;71485;51.638;-0.182;2024-01-06T08:03:34;100437.33;;;17.36;36.22
81990;BME280;71485;51.638;-0.182;2024-01-06T08:06:00;100440.32;;;17.33;36.30
81990;BME280;71485;51.638;-0.182;2024-01-06T08:08:24;100440.98;;;17.40;36.21
81990;BME280;71485;51.638;-0.182;2024-01-06T08:10:49;100447.52;;;17.48;36.13
81990;BME280;71485;51.638;-0.182;2024-01-06T08:13:15;100448.23;;;17.86;35.93
81990;BME280;71485;51.638;-0.182;2024-01-06T08:15:41;100453.47;;;17.38;35.92
81990;BME280;71485;51.638;-0.182;2024-01-06T08:18:06;100460.85;;;17.57;36.02
81990;BME280;71485;51.638;-0.182;2024-01-06T08:20:32;100466.13;;;17.89;35.90
81990;BME280;71485;51.638;-0.182;2024-01-06T08:22:58;100469.69;;;17.53;36.09
81990;BME280;71485;51.638;-0.182;2024-01-06T08:25:31;100477.69;;;17.63;36.00
81990;BME280;71485;51.638;-0.182;2024-01-06T08:27:50;100481.63;;;17.68;35.86
81990;BME280;71485;51.638;-0.182;2024-01-06T08:30:15;100487.59;;;17.50;36.09
81990;BME280;71485;51.638;-0.182;2024-01-06T08:32:40;100491.73;;;16.93;36.22
81990;BME280;71485;51.638;-0.182;2024-01-06T08:35:07;100492.81;;;17.38;36.28
81990;BME280;71485;51.638;-0.182;2024-01-06T08:37:32;100493.48;;;17.35;36.31
81990;BME280;71485;51.638;-0.182;2024-01-06T08:39:58;100498.48;;;17.36;36.32
81990;BME280;71485;51.638;-0.182;2024-01-06T08:42:23;100501.53;;;17.84;36.32
81990;BME280;71485;51.638;-0.182;2024-01-06T08:44:51;100504.75;;;17.35;36.33
81990;BME280;71485;51.638;-0.182;2024-01-06T08:47:17;100508.38;;;17.37;36.31
81990;BME280;71485;51.638;-0.182;2024-01-06T08:49:43;100512.63;;;17.12;36.32
81990;BME280;71485;51.638;-0.182;2024-01-06T08:52:10;100515.07;;;17.34;36.36
81990;BME280;71485;51.638;-0.182;2024-01-06T08:54:31;100514.54;;;17.31;36.42
81990;BME280;71485;51.638;-0.182;2024-01-06T08:56:57;100517.81;;;17.71;36.36
81990;BME280;71485;51.638;-0.182;2024-01-06T08:59:22;100519.75;;;17.69;36.17
81990;BME280;71485;51.638;-0.182;2024-01-06T09:01:50;100521.58;;;17.81;36.12
81990;BME280;71485;51.638;-0.182;2024-01-06T09:04:14;100522.85;;;17.92;36.00
81990;BME280;71485;51.638;-0.182;2024-01-06T09:06:40;100526.87;;;17.49;35.97
81990;BME280;71485;51.638;-0.182;2024-01-06T09:09:05;100531.00;;;18.03;35.89
81990;BME280;71485;51.638;-0.182;2024-01-06T09:11:31;100537.22;;;18.04;35.90
81990;BME280;71485;51.638;-0.182;2024-01-06T09:13:56;100542.18;;;18.14;35.75
81990;BME280;71485;51.638;-0.182;2024-01-06T09:16:22;100548.19;;;17.70;35.73
81990;BME280;71485;51.638;-0.182;2024-01-06T09:18:48;100554.56;;;18.16;35.79
81990;BME280;71485;51.638;-0.182;2024-01-06T09:21:14;100557.73;;;17.78;35.74
81990;BME280;71485;51.638;-0.182;2024-01-06T09:23:40;100565.92;;;17.85;35.75
81990;BME280;71485;51.638;-0.182;2024-01-06T09:26:07;100572.61;;;18.09;35.77
81990;BME280;71485;51.638;-0.182;2024-01-06T09:28:31;100576.30;;;18.26;36.28
81990;BME280;71485;51.638;-0.182;2024-01-06T09:30:56;100576.89;;;18.24;36.96
81990;BME280;71485;51.638;-0.182;2024-01-06T09:33:22;100584.19;;;17.90;37.34
81990;BME280;71485;51.638;-0.182;2024-01-06T09:35:48;100589.19;;;17.95;37.77
81990;BME280;71485;51.638;-0.182;2024-01-06T09:38:13;100589.43;;;18.19;38.38
81990;BME280;71485;51.638;-0.182;2024-01-06T09:40:43;100593.91;;;18.14;38.78
81990;BME280;71485;51.638;-0.182;2024-01-06T09:43:07;100598.60;;;18.31;38.93
81990;BME280;71485;51.638;-0.182;2024-01-06T09:45:30;100602.86;;;18.10;39.14
81990;BME280;71485;51.638;-0.182;2024-01-06T09:47:58;100605.23;;;18.15;39.14
81990;BME280;71485;51.638;-0.182;2024-01-06T09:50:21;100607.10;;;18.42;39.38
81990;BME280;71485;51.638;-0.182;2024-01-06T09:52:48;100612.14;;;17.72;39.36
81990;BME280;71485;51.638;-0.182;2024-01-06T09:55:12;100614.48;;;18.44;39.44
81990;BME280;71485;51.638;-0.182;2024-01-06T09:57:38;100618.33;;;18.23;39.24
81990;BME280;71485;51.638;-0.182;2024-01-06T10:00:05;100620.14;;;18.44;38.73
81990;BME280;71485;51.638;-0.182;2024-01-06T10:02:31;100627.00;;;18.63;37.83
81990;BME280;71485;51.638;-0.182;2024-01-06T10:04:55;100626.69;;;18.78;37.30
81990;BME280;71485;51.638;-0.182;2024-01-06T10:07:23;100633.77;;;18.55;37.01
81990;BME280;71485;51.638;-0.182;2024-01-06T10:09:46;100636.47;;;18.64;36.68
81990;BME280;71485;51.638;-0.182;2024-01-06T10:12:12;100637.12;;;18.70;36.70
81990;BME280;71485;51.638;-0.182;2024-01-06T10:14:38;100641.14;;;18.82;37.41
81990;BME280;71485;51.638;-0.182;2024-01-06T10:17:06;100641.96;;;18.64;37.52
81990;BME280;71485;51.638;-0.182;2024-01-06T10:19:29;100642.65;;;18.88;37.67
81990;BME280;71485;51.638;-0.182;2024-01-06T10:21:56;100645.96;;;18.86;37.63
81990;BME280;71485;51.638;-0.182;2024-01-06T10:24:22;100645.60;;;18.71;37.75
81990;BME280;71485;51.638;-0.182;2024-01-06T10:26:46;100651.89;;;18.53;37.73
81990;BME280;71485;51.638;-0.182;2024-01-06T10:29:09;100650.39;;;18.40;37.61
81990;BME280;71485;51.638;-0.182;2024-01-06T10:31:35;100652.12;;;18.61;37.43
81990;BME280;71485;51.638;-0.182;2024-01-06T10:34:01;100653.13;;;18.29;37.35
81990;BME280;71485;51.638;-0.182;2024-01-06T10:36:26;100653.14;;;18.29;37.20
81990;BME280;71485;51.638;-0.182;2024-01-06T10:38:55;100651.19;;;18.24;37.15
81990;BME280;71485;51.638;-0.182;2024-01-06T10:41:17;100650.99;;;18.46;37.08
81990;BME280;71485;51.638;-0.182;2024-01-06T10:43:43;100654.78;;;17.97;37.02
81990;BME280;71485;51.638;-0.182;2024-01-06T10:46:12;100654.98;;;18.41;37.01
81990;BME280;71485;51.638;-0.182;2024-01-06T10:48:37;100656.54;;;18.38;37.06
81990;BME280;71485;51.638;-0.182;2024-01-06T10:50:59;100660.84;;;18.12;37.03
81990;BME280;71485;51.638;-0.182;2024-01-06T10:53:26;100661.70;;;18.06;37.14
81990;BME280;71485;51.638;-0.182;2024-01-06T10:55:51;100661.91;;;18.06;37.17
81990;BME280;71485;51.638;-0.182;2024-01-06T10:58:17;100664.57;;;18.30;37.27
81990;BME280;71485;51.638;-0.182;2024-01-06T11:00:41;100667.93;;;17.81;37.42
81990;BME280;71485;51.638;-0.182;2024-01-06T11:03:10;100668.30;;;18.30;37.61
81990;BME280;71485;51.638;-0.182;2024-01-06T11:05:33;100671.16;;;18.28;37.77
81990;BME280;71485;51.638;-0.182;2024-01-06T11:07:59;100674.57;;;18.60;37.73
81990;BME280;71485;51.638;-0.182;2024-01-06T11:10:24;100674.77;;;18.33;37.82
81990;BME280;71485;51.638;-0.182;2024-01-06T11:17:52;100673.81;;;18.10;38.01
81990;BME280;71485;51.638;-0.182;2024-01-06T11:20:09;100674.12;;;18.36;38.11
81990;BME280;71485;51.638;-0.182;2024-01-06T11:22:33;100672.46;;;18.60;38.18
81990;BME280;71485;51.638;-0.182;2024-01-06T11:25:04;100675.85;;;18.38;38.45
81990;BME280;71485;51.638;-0.182;2024-01-06T11:27:26;100673.65;;;18.38;38.55
81990;BME280;71485;51.638;-0.182;2024-01-06T11:29:51;100677.85;;;18.13;38.53
81990;BME280;71485;51.638;-0.182;2024-01-06T11:32:18;100677.94;;;18.69;38.45
81990;BME280;71485;51.638;-0.182;2024-01-06T11:34:40;100683.30;;;17.93;38.38
81990;BME280;71485;51.638;-0.182;2024-01-06T11:37:07;100683.54;;;18.63;38.28
81990;BME280;71485;51.638;-0.182;2024-01-06T11:39:35;100683.07;;;18.44;38.15
81990;BME280;71485;51.638;-0.182;2024-01-06T11:41:57;100679.10;;;18.42;38.05
81990;BME280;71485;51.638;-0.182;2024-01-06T11:44:22;100680.32;;;18.22;37.92
81990;BME280;71485;51.638;-0.182;2024-01-06T11:46:49;100682.94;;;18.24;37.76
81990;BME280;71485;51.638;-0.182;2024-01-06T11:49:15;100684.85;;;18.25;37.72
81990;BME280;71485;51.638;-0.182;2024-01-06T11:51:39;100687.67;;;18.27;37.56
81990;BME280;71485;51.638;-0.182;2024-01-06T11:54:05;100685.77;;;18.52;37.49
81990;BME280;71485;51.638;-0.182;2024-01-06T11:56:30;100688.03;;;18.52;37.39
81990;BME280;71485;51.638;-0.182;2024-01-06T11:58:56;100685.82;;;18.24;37.30
81990;BME280;71485;51.638;-0.182;2024-01-06T12:01:23;100683.86;;;18.73;37.24
81990;BME280;71485;51.638;-0.182;2024-01-06T12:03:53;100683.82;;;17.99;37.18
81990;BME280;71485;51.638;-0.182;2024-01-06T12:06:13;100686.17;;;18.45;37.13
81990;BME280;71485;51.638;-0.182;2024-01-06T12:08:39;100684.76;;;18.15;37.13
81990;BME280;71485;51.638;-0.182;2024-01-06T12:11:06;100683.91;;;18.38;37.11
81990;BME280;71485;51.638;-0.182;2024-01-06T12:13:30;100683.73;;;18.38;37.06
81990;BME280;71485;51.638;-0.182;2024-01-06T12:15:55;100684.71;;;18.37;37.00
81990;BME280;71485;51.638;-0.182;2024-01-06T12:18:21;100683.95;;;18.12;36.98
81990;BME280;71485;51.638;-0.182;2024-01-06T12:20:46;100682.16;;;18.14;36.92
81990;BME280;71485;51.638;-0.182;2024-01-06T12:23:24;100682.90;;;18.12;36.89
81990;BME280;71485;51.638;-0.182;2024-01-06T12:25:42;100682.89;;;18.58;36.87
81990;BME280;71485;51.638;-0.182;2024-01-06T12:28:05;100681.10;;;18.11;36.78
81990;BME280;71485;51.638;-0.182;2024-01-06T12:30:30;100679.36;;;18.32;36.78
81990;BME280;71485;51.638;-0.182;2024-01-06T12:32:55;100679.71;;;18.08;36.74
81990;BME280;71485;51.638;-0.182;2024-01-06T12:35:21;100675.65;;;18.56;36.70